createdAt,value
2022-09-24T00:01:32.145Z,51.70
2022-09-24T00:04:01.194Z,51.50
2022-09-24T00:06:32.085Z,51.70
2022-09-24T00:09:00.015Z,51.80
2022-09-24T00:11:28.684Z,51.80
2022-09-24T00:13:57.609Z,51.70
2022-09-24T00:16:26.570Z,51.70
2022-09-24T00:18:54.535Z,51.70
2022-09-24T00:21:23.905Z,51.80
2022-09-24T00:23:54.149Z,51.90
2022-09-24T00:26:40.243Z,51.70
2022-09-24T00:29:08.080Z,51.70
2022-09-24T00:31:35.900Z,51.70
2022-09-24T00:34:03.806Z,51.80
2022-09-24T00:36:31.802Z,51.80
2022-09-24T00:39:01.269Z,51.80
2022-09-24T00:41:30.209Z,51.90
2022-09-24T00:43:58.203Z,51.80
2022-09-24T00:46:27.691Z,51.80
2022-09-24T00:48:57.700Z,51.90
2022-09-24T00:51:26.152Z,51.60
2022-09-24T00:53:56.113Z,51.80
2022-09-24T00:56:25.260Z,51.80
2022-09-24T00:58:54.929Z,51.90
2022-09-24T01:01:23.782Z,51.90
2022-09-24T01:03:52.534Z,52.00
2022-09-24T01:06:20.278Z,51.90
2022-09-24T01:08:48.034Z,52.00
2022-09-24T01:11:22.484Z,51.60
2022-09-24T01:14:00.355Z,52.00
2022-09-24T01:16:33.225Z,52.00
2022-09-24T01:19:07.773Z,51.80
2022-09-24T01:21:39.162Z,51.90
2022-09-24T01:24:25.165Z,51.90
2022-09-24T01:26:59.359Z,51.90
2022-09-24T01:29:33.336Z,52.10
2022-09-24T01:32:06.050Z,51.80
2022-09-24T01:34:37.635Z,51.90
2022-09-24T01:37:05.755Z,52.10
2022-09-24T01:39:33.511Z,52.10
2022-09-24T01:42:01.467Z,52.00
2022-09-24T01:44:29.447Z,52.10
2022-09-24T01:46:59.923Z,52.10
2022-09-24T01:49:28.249Z,52.10
2022-09-24T01:51:58.673Z,52.00
2022-09-24T01:54:28.402Z,52.20
2022-09-24T01:56:58.254Z,52.00
2022-09-24T01:59:28.737Z,52.20
2022-09-24T02:02:00.440Z,52.10
2022-09-24T02:04:28.825Z,52.10
2022-09-24T02:06:58.059Z,52.00
2022-09-24T02:09:31.036Z,52.20
2022-09-24T02:11:59.459Z,52.20
2022-09-24T02:14:27.195Z,51.90
2022-09-24T02:16:55.312Z,52.20
2022-09-24T02:19:25.754Z,52.00
2022-09-24T02:21:53.825Z,52.10
2022-09-24T02:24:24.137Z,52.20
2022-09-24T02:26:52.169Z,52.10
2022-09-24T02:29:20.352Z,52.30
2022-09-24T02:31:49.039Z,52.20
2022-09-24T02:34:25.205Z,52.20
2022-09-24T02:36:56.141Z,52.10
2022-09-24T02:39:24.636Z,52.10
2022-09-24T02:41:52.660Z,52.30
2022-09-24T02:44:20.585Z,52.20
2022-09-24T02:46:48.817Z,52.30
2022-09-24T02:49:16.920Z,52.00
2022-09-24T02:51:44.777Z,52.30
2022-09-24T02:54:14.247Z,52.30
2022-09-24T02:56:42.061Z,52.40
2022-09-24T02:59:10.347Z,52.20
2022-09-24T03:01:38.384Z,52.20
2022-09-24T03:04:06.658Z,52.40
2022-09-24T03:06:35.181Z,52.40
2022-09-24T03:09:04.069Z,52.00
2022-09-24T03:11:34.095Z,52.20
2022-09-24T03:14:02.177Z,52.20
2022-09-24T03:16:30.588Z,52.30
2022-09-24T03:18:58.587Z,52.20
2022-09-24T03:21:26.722Z,52.30
2022-09-24T03:23:54.623Z,52.70
2022-09-24T03:26:22.587Z,52.30
2022-09-24T03:28:52.346Z,52.30
2022-09-24T03:31:19.270Z,52.40
2022-09-24T03:33:48.315Z,52.50
2022-09-24T03:36:17.006Z,52.30
2022-09-24T03:38:46.011Z,52.40
2022-09-24T03:41:14.165Z,52.40
2022-09-24T03:43:42.596Z,52.60
2022-09-24T03:46:12.509Z,52.40
2022-09-24T03:48:41.315Z,52.40
2022-09-24T03:51:12.096Z,52.50
2022-09-24T03:53:40.398Z,52.50
2022-09-24T03:56:08.341Z,52.40
2022-09-24T03:58:38.199Z,52.50
2022-09-24T04:01:06.057Z,52.40
2022-09-24T04:03:35.877Z,52.50
2022-09-24T04:06:04.040Z,52.80
2022-09-24T04:08:32.009Z,52.60
2022-09-24T04:11:00.279Z,52.70
2022-09-24T04:13:28.086Z,52.40
2022-09-24T04:15:55.876Z,52.60
2022-09-24T04:18:23.674Z,52.60
2022-09-24T04:20:52.948Z,52.70
2022-09-24T04:23:20.678Z,52.50
2022-09-24T04:25:48.823Z,52.60
2022-09-24T04:28:16.550Z,52.70
2022-09-24T04:30:44.776Z,52.60
2022-09-24T04:33:12.559Z,52.70
2022-09-24T04:35:40.788Z,52.70
2022-09-24T04:38:10.015Z,52.80
2022-09-24T04:40:38.109Z,52.70
2022-09-24T04:43:06.208Z,52.50
2022-09-24T04:45:34.067Z,52.80
2022-09-24T04:48:02.657Z,52.60
2022-09-24T04:50:33.286Z,52.60
2022-09-24T04:53:01.702Z,52.80
2022-09-24T04:55:32.191Z,52.60
2022-09-24T04:58:00.088Z,52.70
2022-09-24T05:00:27.838Z,52.70
2022-09-24T05:02:59.845Z,52.60
2022-09-24T05:05:28.036Z,52.60
2022-09-24T05:07:57.186Z,52.70
2022-09-24T05:10:26.539Z,52.80
2022-09-24T05:12:55.620Z,52.80
2022-09-24T05:15:23.414Z,53.00
2022-09-24T05:17:51.187Z,52.60
2022-09-24T05:20:18.951Z,52.70
2022-09-24T05:22:47.666Z,52.90
2022-09-24T05:25:16.066Z,53.00
2022-09-24T05:27:46.236Z,52.80
2022-09-24T05:30:15.681Z,53.00
2022-09-24T05:32:43.639Z,53.00
2022-09-24T05:35:12.726Z,53.00
2022-09-24T05:37:40.503Z,52.90
2022-09-24T05:40:23.291Z,52.90
2022-09-24T05:42:51.224Z,52.90
2022-09-24T05:45:20.295Z,53.00
2022-09-24T05:47:48.200Z,53.10
2022-09-24T05:50:16.642Z,53.10
2022-09-24T05:52:44.428Z,52.90
2022-09-24T05:55:12.477Z,53.70
2022-09-24T05:57:40.231Z,52.90
2022-09-24T06:00:09.392Z,53.20
2022-09-24T06:02:38.922Z,53.30
2022-09-24T06:05:08.415Z,53.00
2022-09-24T06:07:36.294Z,53.00
2022-09-24T06:10:05.854Z,53.00
2022-09-24T06:12:35.009Z,53.10
2022-09-24T06:15:03.396Z,53.50
2022-09-24T06:17:32.302Z,53.20
2022-09-24T06:20:01.939Z,53.30
2022-09-24T06:22:30.082Z,52.90
2022-09-24T06:24:58.492Z,53.00
2022-09-24T06:27:26.466Z,53.10
2022-09-24T06:29:54.382Z,53.10
2022-09-24T06:32:24.613Z,53.20
2022-09-24T06:34:56.822Z,52.90
2022-09-24T06:37:28.518Z,52.80
2022-09-24T06:39:56.327Z,52.80
2022-09-24T06:42:24.739Z,53.20
2022-09-24T06:44:52.682Z,53.00
2022-09-24T06:47:21.001Z,53.10
2022-09-24T06:49:50.328Z,52.80
2022-09-24T06:52:18.706Z,53.40
2022-09-24T06:54:47.802Z,52.70
2022-09-24T06:57:15.920Z,52.90
2022-09-24T06:59:43.744Z,53.20
2022-09-24T07:02:11.930Z,53.10
2022-09-24T07:04:39.866Z,52.70
2022-09-24T07:07:25.564Z,52.70
2022-09-24T07:09:54.909Z,52.80
2022-09-24T07:12:23.135Z,52.90
2022-09-24T07:14:50.928Z,53.10
2022-09-24T07:17:18.865Z,52.70
2022-09-24T07:19:46.672Z,52.90
2022-09-24T07:22:14.739Z,52.90
2022-09-24T07:24:42.411Z,52.90
2022-09-24T07:27:11.940Z,52.90
2022-09-24T07:29:40.001Z,52.90
2022-09-24T07:32:07.765Z,53.10
2022-09-24T07:34:35.621Z,52.90
2022-09-24T07:37:03.332Z,53.10
2022-09-24T07:39:31.792Z,53.00
2022-09-24T07:42:00.495Z,52.80
2022-09-24T07:44:32.772Z,52.70
2022-09-24T07:47:00.659Z,52.80
2022-09-24T07:49:32.486Z,53.00
2022-09-24T07:52:00.360Z,53.00
2022-09-24T07:54:30.422Z,53.00
2022-09-24T07:56:58.390Z,52.90
2022-09-24T07:59:26.711Z,53.20
2022-09-24T08:01:56.153Z,53.10
2022-09-24T08:04:24.087Z,52.80
2022-09-24T08:06:51.873Z,52.90
2022-09-24T08:09:19.939Z,52.90
2022-09-24T08:11:48.197Z,53.00
2022-09-24T08:14:16.283Z,53.10
2022-09-24T08:16:44.793Z,53.10
2022-09-24T08:19:14.459Z,53.10
2022-09-24T08:21:42.704Z,53.30
2022-09-24T08:24:10.644Z,52.90
2022-09-24T08:26:38.783Z,52.90
2022-09-24T08:29:06.760Z,53.10
2022-09-24T08:31:35.202Z,53.00
2022-09-24T08:34:03.627Z,53.20
2022-09-24T08:36:33.022Z,52.80
2022-09-24T08:39:00.855Z,53.10
2022-09-24T08:41:36.041Z,52.80
2022-09-24T08:44:05.123Z,52.80
2022-09-24T08:47:01.250Z,52.80
2022-09-24T08:49:31.860Z,52.90
2022-09-24T08:52:04.885Z,52.70
2022-09-24T08:54:33.482Z,52.50
2022-09-24T08:57:01.607Z,52.40
2022-09-24T08:59:31.825Z,52.50
2022-09-24T09:02:07.131Z,52.50
2022-09-24T09:04:39.433Z,52.40
2022-09-24T09:07:14.421Z,52.50
2022-09-24T09:09:47.962Z,52.50
2022-09-24T09:12:18.720Z,52.60
2022-09-24T09:14:50.451Z,52.60
2022-09-24T09:17:30.606Z,52.70
2022-09-24T09:19:59.660Z,52.60
2022-09-24T09:22:30.934Z,52.50
2022-09-24T09:25:04.002Z,52.40
2022-09-24T09:27:32.344Z,52.60
2022-09-24T09:30:01.999Z,52.40
2022-09-24T09:32:38.312Z,52.40
2022-09-24T09:35:09.360Z,52.50
2022-09-24T09:37:40.689Z,52.40
2022-09-24T09:40:16.710Z,52.50
2022-09-24T09:42:45.466Z,52.50
2022-09-24T09:45:27.670Z,52.50
2022-09-24T09:47:57.091Z,52.50
2022-09-24T09:50:28.474Z,52.70
2022-09-24T09:52:57.919Z,52.70
2022-09-24T09:55:27.116Z,52.60
2022-09-24T09:57:54.920Z,52.60
2022-09-24T10:00:28.000Z,52.40
2022-09-24T10:02:55.978Z,52.50
2022-09-24T10:05:28.839Z,52.60
2022-09-24T10:08:05.528Z,52.60
2022-09-24T10:10:33.989Z,52.60
2022-09-24T10:13:09.332Z,52.50
2022-09-24T10:15:45.353Z,52.50
2022-09-24T10:18:14.318Z,53.00
2022-09-24T10:20:46.990Z,52.60
2022-09-24T10:23:50.981Z,52.60
2022-09-24T10:26:19.045Z,52.50
2022-09-24T10:29:05.984Z,52.40
2022-09-24T10:31:36.115Z,52.20
2022-09-24T10:34:04.081Z,51.80
2022-09-24T10:36:33.546Z,51.80
2022-09-24T10:39:10.413Z,51.80
2022-09-24T10:41:38.528Z,51.80
2022-09-24T10:44:07.076Z,52.20
2022-09-24T10:46:51.513Z,52.20
2022-09-24T10:49:27.295Z,52.10
2022-09-24T10:51:58.183Z,52.10
2022-09-24T10:54:37.110Z,52.00
2022-09-24T10:57:09.789Z,51.70
2022-09-24T10:59:44.925Z,51.90
2022-09-24T11:02:28.856Z,52.00
2022-09-24T11:04:57.300Z,51.90
2022-09-24T11:07:46.205Z,52.00
2022-09-24T11:10:22.982Z,52.20
2022-09-24T11:12:57.049Z,52.20
2022-09-24T11:15:31.984Z,52.30
2022-09-24T11:18:10.510Z,52.50
2022-09-24T11:20:39.271Z,52.60
2022-09-24T11:23:28.147Z,52.50
2022-09-24T11:26:00.871Z,52.40
2022-09-24T11:28:57.008Z,52.50
2022-09-24T11:31:27.114Z,52.50
2022-09-24T11:34:05.576Z,52.50
2022-09-24T11:36:41.955Z,52.60
2022-09-24T11:39:21.922Z,52.80
2022-09-24T11:41:55.405Z,52.70
2022-09-24T11:44:56.175Z,52.60
2022-09-24T11:47:30.787Z,52.60
2022-09-24T11:50:06.694Z,52.80
2022-09-24T11:52:35.933Z,52.60
2022-09-24T11:55:06.911Z,52.60
2022-09-24T11:57:38.003Z,52.60
2022-09-24T12:00:08.339Z,52.70
2022-09-24T12:02:37.878Z,52.70
2022-09-24T12:05:08.110Z,52.50
2022-09-24T12:07:37.928Z,52.70
2022-09-24T12:10:08.736Z,52.70
2022-09-24T12:12:40.335Z,52.80
2022-09-24T12:15:13.380Z,52.80
2022-09-24T12:17:44.605Z,52.60
2022-09-24T12:20:20.663Z,52.60
2022-09-24T12:22:49.118Z,52.50
2022-09-24T12:25:17.179Z,52.60
2022-09-24T12:27:46.897Z,52.60
2022-09-24T12:30:40.693Z,52.70
2022-09-24T12:33:10.853Z,52.80
2022-09-24T12:35:44.057Z,52.80
2022-09-24T12:38:13.972Z,52.80
2022-09-24T12:41:05.654Z,52.90
2022-09-24T12:43:38.200Z,52.90
2022-09-24T12:46:06.954Z,52.80
2022-09-24T12:48:37.557Z,52.90
2022-09-24T12:51:07.313Z,52.90
2022-09-24T12:53:36.493Z,52.80
2022-09-24T12:56:05.411Z,52.80
2022-09-24T12:58:39.995Z,52.80
2022-09-24T13:01:09.665Z,52.90
2022-09-24T13:03:43.267Z,52.90
2022-09-24T13:06:22.917Z,53.00
2022-09-24T13:08:51.425Z,52.80
2022-09-24T13:11:33.403Z,52.80
2022-09-24T13:14:07.298Z,53.40
2022-09-24T13:16:38.875Z,52.90
2022-09-24T13:19:07.258Z,53.00
2022-09-24T13:21:34.990Z,53.00
2022-09-24T13:24:12.484Z,52.90
2022-09-24T13:26:40.247Z,52.80
2022-09-24T13:29:23.670Z,52.90
2022-09-24T13:31:52.567Z,52.80
2022-09-24T13:34:21.586Z,52.90
2022-09-24T13:36:52.951Z,53.00
2022-09-24T13:39:23.315Z,53.00
2022-09-24T13:41:57.571Z,52.90
2022-09-24T13:44:29.088Z,52.80
2022-09-24T13:46:59.952Z,52.90
2022-09-24T13:49:27.689Z,53.00
2022-09-24T13:52:00.621Z,53.00
2022-09-24T13:54:34.059Z,53.00
2022-09-24T13:57:07.933Z,52.90
2022-09-24T13:59:37.399Z,52.80
2022-09-24T14:02:05.325Z,52.60
2022-09-24T14:04:33.583Z,52.60
2022-09-24T14:07:02.602Z,52.80
2022-09-24T14:09:31.305Z,52.80
2022-09-24T14:12:00.151Z,52.80
2022-09-24T14:14:28.788Z,52.70
2022-09-24T14:17:08.178Z,52.90
2022-09-24T14:19:36.576Z,52.70
2022-09-24T14:22:04.726Z,52.80
2022-09-24T14:24:34.017Z,53.00
2022-09-24T14:27:02.783Z,52.90
2022-09-24T14:29:43.957Z,52.80
2022-09-24T14:32:22.188Z,52.80
2022-09-24T14:34:51.626Z,52.90
2022-09-24T14:37:20.885Z,52.80
2022-09-24T14:39:49.916Z,52.90
2022-09-24T14:42:22.201Z,52.80
2022-09-24T14:44:49.886Z,53.00
2022-09-24T14:47:27.637Z,53.00
2022-09-24T14:49:55.513Z,53.00
2022-09-24T14:52:28.826Z,52.90
2022-09-24T14:55:05.198Z,52.80
2022-09-24T14:57:37.456Z,53.00
2022-09-24T15:00:19.713Z,53.10
2022-09-24T15:02:50.533Z,53.10
2022-09-24T15:05:18.446Z,53.10
2022-09-24T15:07:46.645Z,53.00
2022-09-24T15:10:20.091Z,53.50
2022-09-24T15:12:47.762Z,55.50
2022-09-24T15:15:27.809Z,56.10
2022-09-24T15:17:57.247Z,56.10
2022-09-24T15:20:24.917Z,56.00
2022-09-24T15:22:53.044Z,56.10
2022-09-24T15:25:20.730Z,55.60
2022-09-24T15:27:52.873Z,55.60
2022-09-24T15:30:21.075Z,55.50
2022-09-24T15:32:50.449Z,55.60
2022-09-24T15:35:19.459Z,55.60
2022-09-24T15:37:48.993Z,55.60
2022-09-24T15:40:18.707Z,55.50
2022-09-24T15:42:46.771Z,55.60
2022-09-24T15:45:18.409Z,55.70
2022-09-24T15:47:46.711Z,55.50
2022-09-24T15:50:14.587Z,56.20
2022-09-24T15:52:46.198Z,55.60
2022-09-24T15:55:15.173Z,55.80
2022-09-24T15:57:42.846Z,55.70
2022-09-24T16:00:14.890Z,55.50
2022-09-24T16:02:43.243Z,55.70
2022-09-24T16:05:12.604Z,55.70
2022-09-24T16:07:40.322Z,55.60
2022-09-24T16:10:10.803Z,55.60
2022-09-24T16:12:38.665Z,55.60
2022-09-24T16:15:07.222Z,55.70
2022-09-24T16:17:34.921Z,55.80
2022-09-24T16:20:03.262Z,55.70
2022-09-24T16:22:30.942Z,55.90
2022-09-24T16:24:58.997Z,55.60
2022-09-24T16:27:28.002Z,55.60
2022-09-24T16:29:56.194Z,55.60
2022-09-24T16:32:23.882Z,55.70
2022-09-24T16:34:51.879Z,55.70
2022-09-24T16:37:19.570Z,55.70
2022-09-24T16:39:48.018Z,55.80
2022-09-24T16:42:15.901Z,55.70
2022-09-24T16:44:45.213Z,55.60
2022-09-24T16:47:16.660Z,55.60
2022-09-24T16:49:44.586Z,55.80
2022-09-24T16:52:12.756Z,55.60
2022-09-24T16:54:40.689Z,55.70
2022-09-24T16:57:08.828Z,55.70
2022-09-24T16:59:36.506Z,55.70
2022-09-24T17:02:05.952Z,55.70
2022-09-24T17:04:35.212Z,55.90
2022-09-24T17:07:03.488Z,55.60
2022-09-24T17:09:49.048Z,55.50
2022-09-24T17:12:17.317Z,55.60
2022-09-24T17:14:45.263Z,55.60
2022-09-24T17:17:14.868Z,55.80
2022-09-24T17:19:42.788Z,55.80
2022-09-24T17:22:10.494Z,55.70
2022-09-24T17:24:39.947Z,56.40
2022-09-24T17:27:08.181Z,55.90
2022-09-24T17:29:36.484Z,55.80
2022-09-24T17:32:04.422Z,55.70
2022-09-24T17:34:34.029Z,56.00
2022-09-24T17:37:01.843Z,55.60
2022-09-24T17:39:30.840Z,55.70
2022-09-24T17:41:58.811Z,55.90
2022-09-24T17:44:27.103Z,55.70
2022-09-24T17:46:55.064Z,55.70
2022-09-24T17:49:23.167Z,56.00
2022-09-24T17:51:52.174Z,55.80
2022-09-24T17:54:21.406Z,56.00
2022-09-24T17:56:49.092Z,55.80
2022-09-24T17:59:17.367Z,56.00
2022-09-24T18:01:45.539Z,55.80
2022-09-24T18:04:14.750Z,55.70
2022-09-24T18:06:43.244Z,55.60
2022-09-24T18:09:13.138Z,55.80
2022-09-24T18:11:41.536Z,56.10
2022-09-24T18:14:11.435Z,55.80
2022-09-24T18:16:39.145Z,55.90
2022-09-24T18:19:06.809Z,55.80
2022-09-24T18:21:35.010Z,55.70
2022-09-24T18:24:03.009Z,55.70
2022-09-24T18:26:34.571Z,55.80
2022-09-24T18:29:03.959Z,56.00
2022-09-24T18:31:32.155Z,55.70
2022-09-24T18:34:05.004Z,55.90
2022-09-24T18:36:34.165Z,55.90
2022-09-24T18:39:02.066Z,55.70
2022-09-24T18:41:32.145Z,55.80
2022-09-24T18:44:00.580Z,55.80
2022-09-24T18:46:30.134Z,55.90
2022-09-24T18:48:58.839Z,55.80
2022-09-24T18:51:27.759Z,55.90
2022-09-24T18:53:56.751Z,55.80
2022-09-24T18:56:25.177Z,56.00
2022-09-24T18:58:57.592Z,56.10
2022-09-24T19:01:27.151Z,56.10
2022-09-24T19:04:03.371Z,55.90
2022-09-24T19:06:31.644Z,56.00
2022-09-24T19:09:00.453Z,56.20
2022-09-24T19:11:30.466Z,56.00
2022-09-24T19:13:59.569Z,56.20
2022-09-24T19:16:27.886Z,56.20
2022-09-24T19:18:55.686Z,56.20
2022-09-24T19:21:24.526Z,56.10
2022-09-24T19:23:52.935Z,55.80
2022-09-24T19:26:21.639Z,55.80
2022-09-24T19:28:55.066Z,55.40
2022-09-24T19:31:25.564Z,55.40
2022-09-24T19:33:54.161Z,55.60
2022-09-24T19:36:22.847Z,55.50
2022-09-24T19:38:51.104Z,55.80
2022-09-24T19:41:22.811Z,56.10
2022-09-24T19:43:51.135Z,55.90
2022-09-24T19:46:20.241Z,55.80
2022-09-24T19:48:50.065Z,56.00
2022-09-24T19:51:18.813Z,56.10
2022-09-24T19:53:48.404Z,56.30
2022-09-24T19:56:16.837Z,56.10
2022-09-24T19:58:46.556Z,56.30
2022-09-24T20:01:17.366Z,56.30
2022-09-24T20:03:46.137Z,56.20
2022-09-24T20:06:16.171Z,56.30
2022-09-24T20:08:44.140Z,56.50
2022-09-24T20:11:14.900Z,56.60
2022-09-24T20:13:46.594Z,56.30
2022-09-24T20:16:15.547Z,56.50
2022-09-24T20:18:43.939Z,56.50
2022-09-24T20:21:12.676Z,56.70
2022-09-24T20:23:42.092Z,56.60
2022-09-24T20:26:28.297Z,56.50
2022-09-24T20:28:56.511Z,56.80
2022-09-24T20:31:24.597Z,56.70
2022-09-24T20:33:52.684Z,56.70
2022-09-24T20:36:24.169Z,56.80
2022-09-24T20:38:53.971Z,56.60
2022-09-24T20:41:22.546Z,56.80
2022-09-24T20:43:50.322Z,56.60
2022-09-24T20:46:19.649Z,56.60
2022-09-24T20:48:47.817Z,56.80
2022-09-24T20:51:18.574Z,56.70
2022-09-24T20:53:46.341Z,56.70
2022-09-24T20:56:15.850Z,57.00
2022-09-24T20:58:43.524Z,56.90
2022-09-24T21:01:11.925Z,57.00
2022-09-24T21:03:45.538Z,56.80
2022-09-24T21:06:15.073Z,56.80
2022-09-24T21:08:43.907Z,57.00
2022-09-24T21:11:13.722Z,56.90
2022-09-24T21:13:44.718Z,57.00
2022-09-24T21:16:12.989Z,56.80
2022-09-24T21:18:42.994Z,57.00
2022-09-24T21:21:11.526Z,56.90
2022-09-24T21:23:39.655Z,56.90
2022-09-24T21:26:12.109Z,56.90
2022-09-24T21:28:39.994Z,56.90
2022-09-24T21:31:09.465Z,57.00
2022-09-24T21:33:37.746Z,57.10
2022-09-24T21:36:06.562Z,57.10
2022-09-24T21:38:34.961Z,57.10
2022-09-24T21:41:04.766Z,57.10
2022-09-24T21:43:35.023Z,57.20
2022-09-24T21:46:04.972Z,57.00
2022-09-24T21:48:35.044Z,57.20
2022-09-24T21:51:04.339Z,56.90
2022-09-24T21:53:32.604Z,57.20
2022-09-24T21:56:00.534Z,57.10
2022-09-24T21:58:29.251Z,57.20
2022-09-24T22:00:57.132Z,57.10
2022-09-24T22:03:25.653Z,57.10
2022-09-24T22:05:55.112Z,57.10
2022-09-24T22:08:28.144Z,57.20
2022-09-24T22:11:02.043Z,57.00
2022-09-24T22:13:31.302Z,57.30
2022-09-24T22:15:59.888Z,57.10
2022-09-24T22:18:28.280Z,57.20
2022-09-24T22:20:58.183Z,57.10
2022-09-24T22:23:26.916Z,57.20
2022-09-24T22:25:56.013Z,57.30
2022-09-24T22:28:25.322Z,57.10
2022-09-24T22:30:53.971Z,57.00
2022-09-24T22:33:39.233Z,57.40
2022-09-24T22:36:09.149Z,57.20
2022-09-24T22:38:37.206Z,57.40
2022-09-24T22:41:05.536Z,57.30
2022-09-24T22:43:33.520Z,57.40
2022-09-24T22:46:01.747Z,57.50
2022-09-24T22:48:29.593Z,57.40
2022-09-24T22:50:57.279Z,57.40
2022-09-24T22:53:26.280Z,57.30
2022-09-24T22:56:04.617Z,57.40
2022-09-24T22:58:32.504Z,57.60
2022-09-24T23:01:07.535Z,57.70
2022-09-24T23:03:35.551Z,57.30
2022-09-24T23:06:03.672Z,57.40
2022-09-24T23:08:33.169Z,57.50
2022-09-24T23:11:07.003Z,57.40
2022-09-24T23:13:34.747Z,57.40
2022-09-24T23:16:10.902Z,57.40
2022-09-24T23:18:38.774Z,57.40
2022-09-24T23:21:07.360Z,57.40
2022-09-24T23:23:36.783Z,57.40
2022-09-24T23:26:07.033Z,57.50
2022-09-24T23:28:35.266Z,57.50
2022-09-24T23:31:03.271Z,57.40
2022-09-24T23:33:33.810Z,57.50
2022-09-24T23:36:01.856Z,57.60
2022-09-24T23:38:29.881Z,57.50
2022-09-24T23:41:00.689Z,57.40
2022-09-24T23:43:29.251Z,57.60
2022-09-24T23:45:57.248Z,57.60
2022-09-24T23:48:25.598Z,57.30
2022-09-24T23:50:53.440Z,57.60
2022-09-24T23:53:22.091Z,57.80
2022-09-24T23:55:49.975Z,57.50
2022-09-24T23:58:20.602Z,57.40
